Canoochee, Georgia
Current Conditions -  °F | °C
As of 3:55 AM on Friday 21 Nov 2014 (Local Time) from KSBO Reporting Station
Clear Clear  
Wind Chill: 37°   Ceiling: Unl
Heat Index: 37°   Visibility: 10mi
Dew Point: 37°   Wind: 0mph
Humidity: 100%   Direction: NA
Pressure: 30.28"   Gusts: NA
Location:  32.6511°N, 82.2336°W
Report Text: KSBO 210855Z AUTO 00000KT 10SM CLR 03/03 A3028 RMK AO2
Loading
Personal Weather Stations






























Interactive Weather Map New forecast layout! Learn more

10-Day Weather Forecast

Advertisements
Track Severe Weather on mobile